createdAt,value
2023-05-04T00:01:18.593Z,8.09
2023-05-04T00:03:46.971Z,8.06
2023-05-04T00:06:16.061Z,8.07
2023-05-04T00:08:43.931Z,8.03
2023-05-04T00:11:13.228Z,8.00
2023-05-04T00:13:41.078Z,7.93
2023-05-04T00:16:10.896Z,7.85
2023-05-04T00:18:39.130Z,7.74
2023-05-04T00:21:08.039Z,7.72
2023-05-04T00:23:36.107Z,7.61
2023-05-04T00:26:04.149Z,7.51
2023-05-04T00:28:33.393Z,7.51
2023-05-04T00:31:01.361Z,7.50
2023-05-04T00:33:29.224Z,7.50
2023-05-04T00:35:57.104Z,7.48
2023-05-04T00:38:25.063Z,7.49
2023-05-04T00:40:53.119Z,7.48
2023-05-04T00:43:21.231Z,7.48
2023-05-04T00:45:50.600Z,7.51
2023-05-04T00:48:18.848Z,7.54
2023-05-04T00:50:46.786Z,7.54
2023-05-04T00:53:14.944Z,7.51
2023-05-04T00:55:43.481Z,7.51
2023-05-04T00:58:11.549Z,7.54
2023-05-04T01:00:39.583Z,7.48
2023-05-04T01:03:11.121Z,7.44
2023-05-04T01:05:44.246Z,7.45
2023-05-04T01:08:16.374Z,7.38
2023-05-04T01:10:50.985Z,7.48
2023-05-04T01:13:22.727Z,7.49
2023-05-04T01:15:50.879Z,7.41
2023-05-04T01:18:20.218Z,7.44
2023-05-04T01:20:48.134Z,7.48
2023-05-04T01:23:17.605Z,7.40
2023-05-04T01:25:54.193Z,7.43
2023-05-04T01:28:28.794Z,7.41
2023-05-04T01:31:00.956Z,7.32
2023-05-04T01:33:30.412Z,7.30
2023-05-04T01:36:00.046Z,7.30
2023-05-04T01:38:29.847Z,7.18
2023-05-04T01:40:57.737Z,7.17
2023-05-04T01:43:25.612Z,7.16
2023-05-04T01:45:53.591Z,7.16
2023-05-04T01:48:24.483Z,7.23
2023-05-04T01:50:52.470Z,7.29
2023-05-04T01:53:20.410Z,7.36
2023-05-04T01:55:49.606Z,7.29
2023-05-04T01:58:18.593Z,7.32
2023-05-04T02:00:46.896Z,7.31
2023-05-04T02:03:14.798Z,7.33
2023-05-04T02:05:43.661Z,7.32
2023-05-04T02:08:11.526Z,7.29
2023-05-04T02:10:39.423Z,7.29
2023-05-04T02:13:08.789Z,7.29
2023-05-04T02:15:36.674Z,7.22
2023-05-04T02:18:04.667Z,7.24
2023-05-04T02:20:32.528Z,7.29
2023-05-04T02:23:00.752Z,7.26
2023-05-04T02:25:28.884Z,7.26
2023-05-04T02:27:56.832Z,7.19
2023-05-04T02:30:26.082Z,7.16
2023-05-04T02:32:53.961Z,7.10
2023-05-04T02:35:23.303Z,7.03
2023-05-04T02:37:51.147Z,6.96
2023-05-04T02:40:19.008Z,6.99
2023-05-04T02:42:46.998Z,7.01
2023-05-04T02:45:14.902Z,6.98
2023-05-04T02:47:45.828Z,6.99
2023-05-04T02:50:13.911Z,6.94
2023-05-04T02:52:41.839Z,6.94
2023-05-04T02:55:10.793Z,6.85
2023-05-04T02:57:38.724Z,6.85
2023-05-04T03:00:08.062Z,6.90
2023-05-04T03:02:35.964Z,6.92
2023-05-04T03:05:05.687Z,6.92
2023-05-04T03:07:33.558Z,6.90
2023-05-04T03:10:01.912Z,6.91
2023-05-04T03:12:30.065Z,6.85
2023-05-04T03:14:58.503Z,6.84
2023-05-04T03:17:26.369Z,6.85
2023-05-04T03:19:55.586Z,6.82
2023-05-04T03:22:25.205Z,6.75
2023-05-04T03:24:53.807Z,6.64
2023-05-04T03:27:21.695Z,6.62
2023-05-04T03:29:49.666Z,6.57
2023-05-04T03:32:17.979Z,6.59
2023-05-04T03:34:46.810Z,6.57
2023-05-04T03:37:16.029Z,6.60
2023-05-04T03:39:45.344Z,6.60
2023-05-04T03:42:13.205Z,6.61
2023-05-04T03:44:41.834Z,6.62
2023-05-04T03:47:10.266Z,6.56
2023-05-04T03:49:38.101Z,6.59
2023-05-04T03:52:07.346Z,6.64
2023-05-04T03:54:35.730Z,6.68
2023-05-04T03:57:05.420Z,6.58
2023-05-04T03:59:43.956Z,6.24
2023-05-04T04:02:13.292Z,6.64
2023-05-04T04:04:41.264Z,6.70
2023-05-04T04:07:11.106Z,6.72
2023-05-04T04:09:38.933Z,6.77
2023-05-04T04:12:08.250Z,6.74
2023-05-04T04:14:36.021Z,6.76
2023-05-04T04:17:03.888Z,6.76
2023-05-04T04:19:34.164Z,6.77
2023-05-04T04:22:02.059Z,6.83
2023-05-04T04:24:29.917Z,6.83
2023-05-04T04:26:57.878Z,6.75
2023-05-04T04:29:27.283Z,6.82
2023-05-04T04:31:55.183Z,6.84
2023-05-04T04:34:23.806Z,6.83
2023-05-04T04:36:51.645Z,6.81
2023-05-04T04:39:19.549Z,6.92
2023-05-04T04:41:47.420Z,6.97
2023-05-04T04:44:15.255Z,6.97
2023-05-04T04:46:45.707Z,7.04
2023-05-04T04:49:13.982Z,7.04
2023-05-04T04:51:42.139Z,7.06
2023-05-04T04:54:10.156Z,7.17
2023-05-04T04:56:40.501Z,7.22
2023-05-04T04:59:08.477Z,7.35
2023-05-04T05:01:36.406Z,7.40
2023-05-04T05:04:06.035Z,7.50
2023-05-04T05:06:33.971Z,7.59
2023-05-04T05:09:02.063Z,7.72
2023-05-04T05:11:29.884Z,7.81
2023-05-04T05:13:59.847Z,7.92
2023-05-04T05:16:27.888Z,7.91
2023-05-04T05:18:55.726Z,8.07
2023-05-04T05:21:25.037Z,8.18
2023-05-04T05:23:52.994Z,8.17
2023-05-04T05:26:20.985Z,8.38
2023-05-04T05:28:49.130Z,8.33
2023-05-04T05:31:17.453Z,8.44
2023-05-04T05:33:45.478Z,8.58
2023-05-04T05:36:14.523Z,8.69
2023-05-04T05:38:43.792Z,8.74
2023-05-04T05:41:11.659Z,8.76
2023-05-04T05:43:39.502Z,8.78
2023-05-04T05:46:07.652Z,8.78
2023-05-04T05:48:35.641Z,8.92
2023-05-04T05:51:04.007Z,8.90
2023-05-04T05:53:31.856Z,8.89
2023-05-04T05:56:01.110Z,8.93
2023-05-04T05:58:29.094Z,9.15
2023-05-04T06:00:56.934Z,9.16
2023-05-04T06:03:25.021Z,9.19
2023-05-04T06:05:52.972Z,9.16
2023-05-04T06:08:20.929Z,9.27
2023-05-04T06:10:50.383Z,9.35
2023-05-04T06:13:19.618Z,9.44
2023-05-04T06:15:52.474Z,9.50
2023-05-04T06:18:20.863Z,9.58
2023-05-04T06:20:48.775Z,9.44
2023-05-04T06:23:16.781Z,9.50
2023-05-04T06:25:44.626Z,9.76
2023-05-04T06:28:12.591Z,9.85
2023-05-04T06:30:41.776Z,9.79
2023-05-04T06:33:09.635Z,9.85
2023-05-04T06:35:37.655Z,9.86
2023-05-04T06:38:05.878Z,10.11
2023-05-04T06:40:33.738Z,10.30
2023-05-04T06:43:01.962Z,10.34
2023-05-04T06:45:30.003Z,10.58
2023-05-04T06:47:59.372Z,10.77
2023-05-04T06:50:27.652Z,10.89
2023-05-04T06:53:04.196Z,11.05
2023-05-04T06:55:32.175Z,10.96
2023-05-04T06:58:00.073Z,11.10
2023-05-04T07:00:28.227Z,11.22
2023-05-04T07:02:56.380Z,11.30
2023-05-04T07:05:26.478Z,11.45
2023-05-04T07:07:54.310Z,11.68
2023-05-04T07:10:22.169Z,11.76
2023-05-04T07:12:52.784Z,11.99
2023-05-04T07:15:20.912Z,12.12
2023-05-04T07:17:51.416Z,12.08
2023-05-04T07:20:22.391Z,12.33
2023-05-04T07:22:56.916Z,13.29
2023-05-04T07:25:25.180Z,13.63
2023-05-04T07:27:53.036Z,13.83
2023-05-04T07:30:21.365Z,14.12
2023-05-04T07:32:49.248Z,14.08
2023-05-04T07:35:17.039Z,14.18
2023-05-04T07:37:45.029Z,14.36
2023-05-04T07:40:15.549Z,14.64
2023-05-04T07:42:43.524Z,14.87
2023-05-04T07:45:11.940Z,14.68
2023-05-04T07:47:39.780Z,14.78
2023-05-04T07:50:08.953Z,14.81
2023-05-04T07:52:37.002Z,14.62
2023-05-04T07:55:05.452Z,14.62
2023-05-04T07:57:35.820Z,14.59
2023-05-04T08:00:05.815Z,14.80
2023-05-04T08:02:41.251Z,14.48
2023-05-04T08:05:09.958Z,14.54
2023-05-04T08:07:37.749Z,14.86
2023-05-04T08:10:06.808Z,14.77
2023-05-04T08:12:36.117Z,14.77
2023-05-04T08:15:04.873Z,14.72
2023-05-04T08:17:33.232Z,14.75
2023-05-04T08:20:01.149Z,14.88
2023-05-04T08:22:29.988Z,15.06
2023-05-04T08:24:57.821Z,15.21
2023-05-04T08:27:25.698Z,15.20
2023-05-04T08:29:55.042Z,15.06
2023-05-04T08:32:22.868Z,15.08
2023-05-04T08:34:51.721Z,15.20
2023-05-04T08:37:21.265Z,15.11
2023-05-04T08:39:49.847Z,15.40
2023-05-04T08:42:28.499Z,15.60
2023-05-04T08:44:58.718Z,15.50
2023-05-04T08:47:27.756Z,15.37
2023-05-04T08:49:56.322Z,15.78
2023-05-04T08:52:25.389Z,15.74
2023-05-04T08:54:55.848Z,15.70
2023-05-04T08:57:25.556Z,15.78
2023-05-04T08:59:54.698Z,15.82
2023-05-04T09:02:25.181Z,15.94
2023-05-04T09:04:54.411Z,16.20
2023-05-04T09:07:23.124Z,16.24
2023-05-04T09:09:51.858Z,16.40
2023-05-04T09:12:20.496Z,16.43
2023-05-04T09:14:48.439Z,16.59
2023-05-04T09:17:25.348Z,16.40
2023-05-04T09:20:01.504Z,16.42
2023-05-04T09:22:30.231Z,16.58
2023-05-04T09:25:10.464Z,16.47
2023-05-04T09:27:39.226Z,16.62
2023-05-04T09:30:09.135Z,16.89
2023-05-04T09:32:38.440Z,16.83
2023-05-04T09:35:10.738Z,16.93
2023-05-04T09:37:44.991Z,17.10
2023-05-04T09:40:14.763Z,17.28
2023-05-04T09:42:43.715Z,17.22
2023-05-04T09:45:13.612Z,17.32
2023-05-04T09:47:42.643Z,17.57
2023-05-04T09:50:22.517Z,17.57
2023-05-04T09:52:51.368Z,17.77
2023-05-04T09:55:20.661Z,17.78
2023-05-04T09:57:50.255Z,17.85
2023-05-04T10:00:21.986Z,17.48
2023-05-04T10:02:50.343Z,17.75
2023-05-04T10:05:21.782Z,17.70
2023-05-04T10:07:49.995Z,17.82
2023-05-04T10:10:17.935Z,18.01
2023-05-04T10:12:46.385Z,18.06
2023-05-04T10:15:16.971Z,17.99
2023-05-04T10:18:09.964Z,18.01
2023-05-04T10:20:52.017Z,17.84
2023-05-04T10:23:52.157Z,17.85
2023-05-04T10:26:47.668Z,18.25
2023-05-04T10:29:23.609Z,18.08
2023-05-04T10:31:52.694Z,18.37
2023-05-04T10:34:27.544Z,18.48
2023-05-04T10:36:57.436Z,18.75
2023-05-04T10:39:26.977Z,18.46
2023-05-04T10:42:02.492Z,18.67
2023-05-04T10:44:31.309Z,18.86
2023-05-04T10:47:03.755Z,18.82
2023-05-04T10:49:32.769Z,18.95
2023-05-04T10:52:10.039Z,18.77
2023-05-04T10:54:38.172Z,18.83
2023-05-04T10:57:07.219Z,18.68
2023-05-04T10:59:36.735Z,19.04
2023-05-04T11:02:06.776Z,19.19
2023-05-04T11:04:35.533Z,19.40
2023-05-04T11:07:05.305Z,19.40
2023-05-04T11:09:38.813Z,19.33
2023-05-04T11:12:10.466Z,19.57
2023-05-04T11:14:42.446Z,19.53
2023-05-04T11:17:26.872Z,18.95
2023-05-04T11:19:55.894Z,19.14
2023-05-04T11:22:23.847Z,19.06
2023-05-04T11:24:54.323Z,19.32
2023-05-04T11:27:25.299Z,19.89
2023-05-04T11:30:01.019Z,20.17
2023-05-04T11:32:36.447Z,20.17
2023-05-04T11:35:05.262Z,20.18
2023-05-04T11:37:40.024Z,20.38
2023-05-04T11:40:14.992Z,20.63
2023-05-04T11:42:43.658Z,20.55
2023-05-04T11:45:17.997Z,20.84
2023-05-04T11:47:47.065Z,20.70
2023-05-04T11:50:16.111Z,19.81
2023-05-04T11:52:44.688Z,19.89
2023-05-04T11:55:14.931Z,19.80
2023-05-04T11:57:42.691Z,19.47
2023-05-04T12:00:12.277Z,19.71
2023-05-04T12:02:40.259Z,20.26
2023-05-04T12:05:14.787Z,20.59
2023-05-04T12:07:43.100Z,20.89
2023-05-04T12:10:11.345Z,20.79
2023-05-04T12:12:40.731Z,20.79
2023-05-04T12:15:10.718Z,20.90
2023-05-04T12:17:42.410Z,20.92
2023-05-04T12:20:10.635Z,21.09
2023-05-04T12:22:38.633Z,20.97
2023-05-04T12:25:07.831Z,20.94
2023-05-04T12:27:35.919Z,21.42
2023-05-04T12:30:05.835Z,21.56
2023-05-04T12:32:34.191Z,22.03
2023-05-04T12:35:02.199Z,21.73
2023-05-04T12:37:30.411Z,21.31
2023-05-04T12:39:58.373Z,21.04
2023-05-04T12:42:26.334Z,20.42
2023-05-04T12:44:54.183Z,20.93
2023-05-04T12:47:24.748Z,21.01
2023-05-04T12:49:52.891Z,21.35
2023-05-04T12:52:20.739Z,21.95
2023-05-04T12:54:48.534Z,22.23
2023-05-04T12:57:16.399Z,22.19
2023-05-04T12:59:44.315Z,22.75
2023-05-04T13:02:12.098Z,23.14
2023-05-04T13:04:41.333Z,23.09
2023-05-04T13:07:09.234Z,22.85
2023-05-04T13:09:37.047Z,23.04
2023-05-04T13:12:04.988Z,23.37
2023-05-04T13:14:39.248Z,23.31
2023-05-04T13:17:07.749Z,22.83
2023-05-04T13:19:35.578Z,22.41
2023-05-04T13:22:05.844Z,22.54
2023-05-04T13:24:33.767Z,22.92
2023-05-04T13:27:02.838Z,23.32
2023-05-04T13:29:30.642Z,23.42
2023-05-04T13:31:59.279Z,23.28
2023-05-04T13:34:27.318Z,23.27
2023-05-04T13:36:55.161Z,23.48
2023-05-04T13:39:24.383Z,23.74
2023-05-04T13:41:52.481Z,23.36
2023-05-04T13:44:20.411Z,23.48
2023-05-04T13:46:48.918Z,23.33
2023-05-04T13:49:17.882Z,23.47
2023-05-04T13:51:45.680Z,23.28
2023-05-04T13:54:13.591Z,22.81
2023-05-04T13:56:45.811Z,22.62
2023-05-04T13:59:13.723Z,22.65
2023-05-04T14:01:41.542Z,23.01
2023-05-04T14:04:09.721Z,23.43
2023-05-04T14:06:37.649Z,22.94
2023-05-04T14:09:05.486Z,22.45
2023-05-04T14:11:33.277Z,22.63
2023-05-04T14:14:02.477Z,22.74
2023-05-04T14:16:30.374Z,22.56
2023-05-04T14:18:58.287Z,22.50
2023-05-04T14:21:26.150Z,22.31
2023-05-04T14:23:53.979Z,22.33
2023-05-04T14:26:26.465Z,22.45
2023-05-04T14:28:54.256Z,22.58
2023-05-04T14:31:23.450Z,23.21
2023-05-04T14:33:51.393Z,22.54
2023-05-04T14:36:19.227Z,22.81
2023-05-04T14:38:48.055Z,22.13
2023-05-04T14:41:16.124Z,22.70
2023-05-04T14:43:43.938Z,23.25
2023-05-04T14:46:12.902Z,23.78
2023-05-04T14:48:42.263Z,23.46
2023-05-04T14:51:10.158Z,23.82
2023-05-04T14:53:39.437Z,23.76
2023-05-04T14:56:08.052Z,24.22
2023-05-04T14:58:36.469Z,24.00
2023-05-04T15:01:04.317Z,23.65
2023-05-04T15:03:32.239Z,23.83
2023-05-04T15:06:01.385Z,23.80
2023-05-04T15:08:29.392Z,23.78
2023-05-04T15:10:59.045Z,23.79
2023-05-04T15:13:27.171Z,24.00
2023-05-04T15:15:55.138Z,23.77
2023-05-04T15:18:23.996Z,23.38
2023-05-04T15:20:51.897Z,23.26
2023-05-04T15:23:21.423Z,23.71
2023-05-04T15:25:49.282Z,23.21
2023-05-04T15:28:17.075Z,22.79
2023-05-04T15:30:45.233Z,22.97
2023-05-04T15:33:13.022Z,22.98
2023-05-04T15:35:41.289Z,23.06
2023-05-04T15:38:09.131Z,22.69
2023-05-04T15:40:38.557Z,22.70
2023-05-04T15:43:06.345Z,22.79
2023-05-04T15:45:34.236Z,23.12
2023-05-04T15:48:02.133Z,23.01
2023-05-04T15:50:31.098Z,23.23
2023-05-04T15:53:01.053Z,22.78
2023-05-04T15:55:29.068Z,23.17
2023-05-04T15:57:58.300Z,23.29
2023-05-04T16:00:26.975Z,23.55
2023-05-04T16:02:54.996Z,23.45
2023-05-04T16:05:24.419Z,23.46
2023-05-04T16:07:52.359Z,23.76
2023-05-04T16:10:20.984Z,23.76
2023-05-04T16:12:48.907Z,23.86
2023-05-04T16:15:18.195Z,23.32
2023-05-04T16:17:46.044Z,23.38
2023-05-04T16:20:14.135Z,23.23
2023-05-04T16:22:42.068Z,23.29
2023-05-04T16:25:11.536Z,23.78
2023-05-04T16:27:40.205Z,23.73
2023-05-04T16:30:09.795Z,23.93
2023-05-04T16:32:39.409Z,23.80
2023-05-04T16:35:08.686Z,23.82
2023-05-04T16:37:37.085Z,23.10
2023-05-04T16:40:14.102Z,23.24
2023-05-04T16:42:42.053Z,23.17
2023-05-04T16:45:11.363Z,23.01
2023-05-04T16:47:40.968Z,22.92
2023-05-04T16:50:09.913Z,22.78
2023-05-04T16:52:37.769Z,22.53
2023-05-04T16:55:09.067Z,21.92
2023-05-04T16:57:38.555Z,21.90
2023-05-04T17:00:08.015Z,21.87
2023-05-04T17:02:38.247Z,22.04
2023-05-04T17:05:10.353Z,22.02
2023-05-04T17:07:39.589Z,22.01
2023-05-04T17:10:09.220Z,22.06
2023-05-04T17:12:37.431Z,22.09
2023-05-04T17:15:05.996Z,21.82
2023-05-04T17:17:33.993Z,21.91
2023-05-04T17:20:02.433Z,21.69
2023-05-04T17:22:31.710Z,21.57
2023-05-04T17:25:00.146Z,21.04
2023-05-04T17:27:27.957Z,21.27
2023-05-04T17:29:55.875Z,21.25
2023-05-04T17:32:23.738Z,21.18
2023-05-04T17:34:51.621Z,21.00
2023-05-04T17:37:19.687Z,20.62
2023-05-04T17:39:48.864Z,20.34
2023-05-04T17:42:16.869Z,20.30
2023-05-04T17:44:44.834Z,20.26
2023-05-04T17:47:12.681Z,20.11
2023-05-04T17:49:40.645Z,20.01
2023-05-04T17:52:08.813Z,19.65
2023-05-04T17:54:37.032Z,19.62
2023-05-04T17:57:06.198Z,19.53
2023-05-04T17:59:34.051Z,19.58
2023-05-04T18:02:03.193Z,19.47
2023-05-04T18:04:32.344Z,19.49
2023-05-04T18:07:00.245Z,19.40
2023-05-04T18:09:28.162Z,19.25
2023-05-04T18:11:56.986Z,18.99
2023-05-04T18:14:26.351Z,18.94
2023-05-04T18:16:54.177Z,18.74
2023-05-04T18:19:24.812Z,18.63
2023-05-04T18:21:52.727Z,18.37
2023-05-04T18:24:20.685Z,18.27
2023-05-04T18:26:48.956Z,18.08
2023-05-04T18:29:19.264Z,18.03
2023-05-04T18:31:48.983Z,18.02
2023-05-04T18:34:16.871Z,18.06
2023-05-04T18:36:46.027Z,17.95
2023-05-04T18:39:15.718Z,17.95
2023-05-04T18:41:43.535Z,17.84
2023-05-04T18:44:17.385Z,17.74
2023-05-04T18:46:45.212Z,17.68
2023-05-04T18:49:14.520Z,17.56
2023-05-04T18:51:42.388Z,17.52
2023-05-04T18:54:10.224Z,17.46
2023-05-04T18:56:38.080Z,17.34
2023-05-04T18:59:06.725Z,17.27
2023-05-04T19:01:34.687Z,17.28
2023-05-04T19:04:03.832Z,17.27
2023-05-04T19:06:33.377Z,17.28
2023-05-04T19:09:01.347Z,17.28
2023-05-04T19:11:29.962Z,17.20
2023-05-04T19:13:57.786Z,17.18
2023-05-04T19:16:26.732Z,17.10
2023-05-04T19:18:55.682Z,16.97
2023-05-04T19:21:23.756Z,16.82
2023-05-04T19:23:53.861Z,16.73
2023-05-04T19:26:22.070Z,16.97
2023-05-04T19:28:49.980Z,16.87
2023-05-04T19:31:17.931Z,16.96
2023-05-04T19:33:48.814Z,16.85
2023-05-04T19:36:17.189Z,16.83
2023-05-04T19:38:45.256Z,16.66
2023-05-04T19:41:14.789Z,16.55
2023-05-04T19:43:42.759Z,16.63
2023-05-04T19:46:10.765Z,16.47
2023-05-04T19:48:39.489Z,16.49
2023-05-04T19:51:07.463Z,16.60
2023-05-04T19:53:35.443Z,16.53
2023-05-04T19:56:03.384Z,16.63
2023-05-04T19:58:32.740Z,16.44
2023-05-04T20:01:00.731Z,16.42
2023-05-04T20:03:28.768Z,16.37
2023-05-04T20:05:59.578Z,16.39
2023-05-04T20:08:27.959Z,16.50
2023-05-04T20:10:55.932Z,16.41
2023-05-04T20:13:25.622Z,16.27
2023-05-04T20:15:54.962Z,16.33
2023-05-04T20:18:23.320Z,16.24
2023-05-04T20:20:52.156Z,16.24
2023-05-04T20:23:20.132Z,16.27
2023-05-04T20:25:48.249Z,16.32
2023-05-04T20:28:16.490Z,16.26
2023-05-04T20:30:46.245Z,16.24
2023-05-04T20:33:16.009Z,16.14
2023-05-04T20:35:45.290Z,16.07
2023-05-04T20:38:13.562Z,16.05
2023-05-04T20:40:41.773Z,15.90
2023-05-04T20:43:09.658Z,15.93
2023-05-04T20:45:37.637Z,15.88
2023-05-04T20:48:06.194Z,15.95
2023-05-04T20:50:36.051Z,15.80
2023-05-04T20:53:04.343Z,15.55
2023-05-04T20:55:32.326Z,15.80
2023-05-04T20:58:00.439Z,15.77
2023-05-04T21:00:30.016Z,15.53
2023-05-04T21:02:58.969Z,15.43
2023-05-04T21:05:26.958Z,15.25
2023-05-04T21:07:56.501Z,15.23
2023-05-04T21:10:25.048Z,15.23
2023-05-04T21:12:53.005Z,15.16
2023-05-04T21:15:21.607Z,15.08
2023-05-04T21:17:51.057Z,15.10
2023-05-04T21:20:19.054Z,14.92
2023-05-04T21:22:47.048Z,14.89
2023-05-04T21:25:16.533Z,15.13
2023-05-04T21:27:44.565Z,15.15
2023-05-04T21:30:12.809Z,14.86
2023-05-04T21:32:40.684Z,14.97
2023-05-04T21:35:09.215Z,14.79
2023-05-04T21:37:37.229Z,14.43
2023-05-04T21:40:05.917Z,14.17
2023-05-04T21:42:35.571Z,14.17
2023-05-04T21:45:03.369Z,14.02
2023-05-04T21:47:31.311Z,14.15
2023-05-04T21:50:00.834Z,14.30
2023-05-04T21:52:28.689Z,14.28
2023-05-04T21:54:56.695Z,14.46
2023-05-04T21:57:25.358Z,14.30
2023-05-04T21:59:54.824Z,14.17
2023-05-04T22:02:22.881Z,13.67
2023-05-04T22:04:50.705Z,13.92
2023-05-04T22:07:18.548Z,14.11
2023-05-04T22:09:46.498Z,14.27
2023-05-04T22:12:14.365Z,14.31
2023-05-04T22:14:42.608Z,14.45
2023-05-04T22:17:11.891Z,14.42
2023-05-04T22:19:39.756Z,14.43
2023-05-04T22:22:07.653Z,14.34
2023-05-04T22:24:35.669Z,14.28
2023-05-04T22:27:03.464Z,14.27
2023-05-04T22:29:31.300Z,13.94
2023-05-04T22:31:59.141Z,13.76
2023-05-04T22:34:28.302Z,13.87
2023-05-04T22:36:56.146Z,13.99
2023-05-04T22:39:24.084Z,14.19
2023-05-04T22:41:51.897Z,14.28
2023-05-04T22:44:19.738Z,14.39
2023-05-04T22:46:49.169Z,14.35
2023-05-04T22:49:18.394Z,14.25
2023-05-04T22:51:47.895Z,14.62
2023-05-04T22:54:15.790Z,14.73
2023-05-04T22:56:43.558Z,14.82
2023-05-04T22:59:11.381Z,14.48
2023-05-04T23:01:43.167Z,13.41
2023-05-04T23:04:11.608Z,12.63
2023-05-04T23:06:39.571Z,12.20
2023-05-04T23:09:08.934Z,12.03
2023-05-04T23:11:36.726Z,11.98
2023-05-04T23:14:04.651Z,11.85
2023-05-04T23:16:32.658Z,11.75
2023-05-04T23:19:00.443Z,11.74
2023-05-04T23:21:28.405Z,11.61
2023-05-04T23:23:56.251Z,11.49
2023-05-04T23:26:25.503Z,11.35
2023-05-04T23:28:53.370Z,11.05
2023-05-04T23:31:21.354Z,10.86
2023-05-04T23:33:49.202Z,10.78
2023-05-04T23:36:16.973Z,10.78
2023-05-04T23:38:44.904Z,10.76
2023-05-04T23:41:12.750Z,10.72
2023-05-04T23:43:42.001Z,10.51
2023-05-04T23:46:09.870Z,10.37
2023-05-04T23:48:37.697Z,10.32
2023-05-04T23:51:06.441Z,10.32
2023-05-04T23:53:35.273Z,10.36
2023-05-04T23:56:04.916Z,10.34
2023-05-04T23:58:34.043Z,10.27
